createdAt,value
2022-09-25T00:01:00.620Z,12.10
2022-09-25T00:03:31.585Z,11.90
2022-09-25T00:06:06.129Z,12.00
2022-09-25T00:08:33.770Z,12.00
2022-09-25T00:11:04.806Z,12.00
2022-09-25T00:13:31.564Z,11.90
2022-09-25T00:15:59.346Z,12.00
2022-09-25T00:18:45.186Z,12.00
2022-09-25T00:21:14.589Z,11.90
2022-09-25T00:23:44.705Z,11.90
2022-09-25T00:26:13.228Z,11.90
2022-09-25T00:28:40.690Z,11.90
2022-09-25T00:31:09.698Z,12.00
2022-09-25T00:33:37.058Z,12.00
2022-09-25T00:36:07.325Z,11.90
2022-09-25T00:38:35.442Z,11.90
2022-09-25T00:41:03.093Z,11.80
2022-09-25T00:43:51.107Z,11.80
2022-09-25T00:46:17.743Z,11.70
2022-09-25T00:49:06.798Z,11.80
2022-09-25T00:51:45.494Z,11.70
2022-09-25T00:54:23.274Z,11.80
2022-09-25T00:56:52.486Z,11.80
2022-09-25T00:59:22.569Z,11.80
2022-09-25T01:01:49.266Z,11.80
2022-09-25T01:04:16.914Z,11.90
2022-09-25T01:06:44.386Z,11.90
2022-09-25T01:09:11.438Z,12.00
2022-09-25T01:11:38.162Z,12.10
2022-09-25T01:14:07.415Z,12.00
2022-09-25T01:16:53.429Z,11.90
2022-09-25T01:19:32.276Z,11.90
2022-09-25T01:22:26.356Z,12.00
2022-09-25T01:25:14.793Z,11.90
2022-09-25T01:27:55.048Z,12.00
2022-09-25T01:30:21.978Z,12.00
2022-09-25T01:33:07.799Z,12.00
2022-09-25T01:35:57.404Z,11.90
2022-09-25T01:38:31.131Z,11.80
2022-09-25T01:41:10.161Z,11.80
2022-09-25T01:43:52.393Z,11.80
2022-09-25T01:46:22.284Z,11.80
2022-09-25T01:48:55.294Z,11.80
2022-09-25T01:51:29.539Z,11.80
2022-09-25T01:54:02.030Z,11.80
2022-09-25T01:57:01.652Z,11.80
2022-09-25T01:59:47.054Z,11.70
2022-09-25T02:02:19.141Z,11.60
2022-09-25T02:05:02.127Z,11.60
2022-09-25T02:07:36.140Z,11.50
2022-09-25T02:10:23.313Z,11.50
2022-09-25T02:12:55.329Z,11.50
2022-09-25T02:15:31.202Z,11.60
2022-09-25T02:18:24.412Z,11.60
2022-09-25T02:21:13.580Z,11.60
2022-09-25T02:23:49.640Z,11.60
2022-09-25T02:26:29.261Z,11.50
2022-09-25T02:28:57.032Z,11.50
2022-09-25T02:31:30.936Z,11.40
2022-09-25T02:33:58.540Z,11.40
2022-09-25T02:36:25.268Z,11.50
2022-09-25T02:38:55.403Z,11.50
2022-09-25T02:41:37.381Z,11.40
2022-09-25T02:44:13.018Z,11.40
2022-09-25T02:46:48.717Z,11.50
2022-09-25T02:49:46.306Z,11.50
2022-09-25T02:52:47.836Z,11.50
2022-09-25T02:55:37.982Z,11.50
2022-09-25T02:58:33.606Z,11.50
2022-09-25T03:01:03.382Z,11.50
2022-09-25T03:03:31.936Z,11.50
2022-09-25T03:05:59.860Z,11.40
2022-09-25T03:08:41.454Z,11.40
2022-09-25T03:11:09.932Z,11.40
2022-09-25T03:13:37.438Z,11.30
2022-09-25T03:16:19.497Z,11.30
2022-09-25T03:18:47.648Z,11.30
2022-09-25T03:21:14.714Z,11.30
2022-09-25T03:23:41.903Z,11.30
2022-09-25T03:26:08.809Z,11.30
2022-09-25T03:28:35.575Z,11.30
2022-09-25T03:31:11.282Z,11.30
2022-09-25T03:33:40.634Z,11.30
2022-09-25T03:36:19.211Z,11.30
2022-09-25T03:38:48.139Z,11.30
2022-09-25T03:41:19.273Z,11.40
2022-09-25T03:43:48.641Z,11.40
2022-09-25T03:46:15.686Z,11.40
2022-09-25T03:48:42.690Z,11.30
2022-09-25T03:51:10.067Z,11.40
2022-09-25T03:53:37.488Z,11.40
2022-09-25T03:56:11.305Z,11.40
2022-09-25T03:58:38.403Z,11.40
2022-09-25T04:01:06.025Z,11.40
2022-09-25T04:03:33.977Z,11.40
2022-09-25T04:06:04.848Z,11.30
2022-09-25T04:08:32.672Z,11.30
2022-09-25T04:10:59.952Z,11.40
2022-09-25T04:13:31.917Z,11.30
2022-09-25T04:16:00.959Z,11.40
2022-09-25T04:18:31.451Z,11.30
2022-09-25T04:20:59.085Z,11.30
2022-09-25T04:23:25.792Z,11.30
2022-09-25T04:25:53.694Z,11.30
2022-09-25T04:28:22.357Z,11.30
2022-09-25T04:30:52.095Z,11.30
2022-09-25T04:33:39.980Z,11.30
2022-09-25T04:36:06.875Z,11.30
2022-09-25T04:38:33.681Z,11.30
2022-09-25T04:41:01.550Z,11.30
2022-09-25T04:43:32.518Z,11.40
2022-09-25T04:46:07.488Z,11.40
2022-09-25T04:48:35.454Z,11.40
2022-09-25T04:51:02.837Z,11.40
2022-09-25T04:53:30.897Z,11.30
2022-09-25T04:56:03.027Z,11.30
2022-09-25T04:58:29.747Z,11.30
2022-09-25T05:01:00.656Z,11.30
2022-09-25T05:03:27.437Z,11.30
2022-09-25T05:05:54.100Z,11.20
2022-09-25T05:08:20.718Z,11.30
2022-09-25T05:10:47.379Z,11.30
2022-09-25T05:13:14.068Z,11.10
2022-09-25T05:15:40.724Z,11.10
2022-09-25T05:18:18.015Z,11.10
2022-09-25T05:20:44.947Z,11.10
2022-09-25T05:23:12.124Z,11.00
2022-09-25T05:25:39.026Z,11.00
2022-09-25T05:28:05.929Z,11.10
2022-09-25T05:30:34.559Z,11.10
2022-09-25T05:33:01.631Z,11.10
2022-09-25T05:35:31.188Z,11.10
2022-09-25T05:37:58.100Z,11.10
2022-09-25T05:40:25.331Z,11.00
2022-09-25T05:42:52.424Z,11.00
2022-09-25T05:45:20.959Z,10.90
2022-09-25T05:47:47.978Z,10.90
2022-09-25T05:50:16.856Z,10.90
2022-09-25T05:52:43.742Z,10.90
2022-09-25T05:55:10.830Z,11.00
2022-09-25T05:57:38.117Z,11.00
2022-09-25T06:00:09.080Z,11.00
2022-09-25T06:02:41.455Z,11.10
2022-09-25T06:05:08.973Z,11.10
2022-09-25T06:07:38.880Z,11.10
2022-09-25T06:10:06.086Z,11.10
2022-09-25T06:12:32.706Z,11.10
2022-09-25T06:14:59.501Z,11.10
2022-09-25T06:17:26.170Z,11.10
2022-09-25T06:19:52.765Z,11.20
2022-09-25T06:22:19.416Z,11.10
2022-09-25T06:24:48.852Z,11.10
2022-09-25T06:27:15.581Z,11.10
2022-09-25T06:29:42.331Z,11.10
2022-09-25T06:32:09.009Z,11.20
2022-09-25T06:34:35.645Z,11.20
2022-09-25T06:37:02.393Z,11.20
2022-09-25T06:39:29.042Z,11.20
2022-09-25T06:41:55.755Z,11.30
2022-09-25T06:44:22.838Z,11.20
2022-09-25T06:46:50.905Z,11.10
2022-09-25T06:49:17.686Z,11.20
2022-09-25T06:51:44.342Z,11.20
2022-09-25T06:54:11.057Z,11.20
2022-09-25T06:56:37.807Z,11.30
2022-09-25T06:59:05.107Z,11.20
2022-09-25T07:01:31.966Z,11.20
2022-09-25T07:03:58.647Z,11.20
2022-09-25T07:06:26.789Z,11.30
2022-09-25T07:08:53.488Z,11.20
2022-09-25T07:11:22.525Z,11.30
2022-09-25T07:13:52.154Z,11.30
2022-09-25T07:16:20.261Z,11.10
2022-09-25T07:18:47.118Z,11.20
2022-09-25T07:21:18.559Z,11.30
2022-09-25T07:23:48.565Z,11.30
2022-09-25T07:26:16.620Z,11.40
2022-09-25T07:28:44.260Z,11.40
2022-09-25T07:31:15.339Z,11.50
2022-09-25T07:33:42.826Z,11.60
2022-09-25T07:36:09.801Z,11.60
2022-09-25T07:38:36.986Z,11.60
2022-09-25T07:41:06.135Z,11.50
2022-09-25T07:43:33.999Z,11.60
2022-09-25T07:46:01.180Z,11.60
2022-09-25T07:48:30.593Z,11.60
2022-09-25T07:51:06.303Z,11.60
2022-09-25T07:53:32.965Z,11.50
2022-09-25T07:56:06.043Z,11.50
2022-09-25T07:58:35.116Z,11.50
2022-09-25T08:01:04.173Z,11.50
2022-09-25T08:03:30.903Z,11.40
2022-09-25T08:06:15.694Z,11.50
2022-09-25T08:08:44.037Z,11.50
2022-09-25T08:11:15.534Z,11.50
2022-09-25T08:13:42.830Z,11.60
2022-09-25T08:16:15.151Z,11.60
2022-09-25T08:18:43.853Z,11.70
2022-09-25T08:21:14.075Z,11.60
2022-09-25T08:23:47.483Z,11.80
2022-09-25T08:26:15.237Z,11.90
2022-09-25T08:28:42.097Z,12.00
2022-09-25T08:31:08.882Z,12.00
2022-09-25T08:33:37.157Z,12.00
2022-09-25T08:36:05.735Z,12.00
2022-09-25T08:38:33.182Z,12.00
2022-09-25T08:41:07.852Z,12.00
2022-09-25T08:43:40.223Z,12.10
2022-09-25T08:46:39.741Z,12.00
2022-09-25T08:49:10.063Z,11.90
2022-09-25T08:51:41.085Z,11.80
2022-09-25T08:54:18.437Z,11.80
2022-09-25T08:56:45.727Z,11.80
2022-09-25T08:59:28.547Z,11.80
2022-09-25T09:02:16.838Z,11.80
2022-09-25T09:04:51.672Z,11.80
2022-09-25T09:07:27.483Z,11.80
2022-09-25T09:10:08.599Z,11.90
2022-09-25T09:12:45.749Z,11.90
2022-09-25T09:15:48.781Z,12.10
2022-09-25T09:18:27.813Z,12.10
2022-09-25T09:20:57.184Z,12.20
2022-09-25T09:23:32.579Z,12.20
2022-09-25T09:25:59.250Z,12.10
2022-09-25T09:28:37.874Z,12.00
2022-09-25T09:31:27.179Z,12.00
2022-09-25T09:34:06.279Z,12.00
2022-09-25T09:36:50.608Z,12.20
2022-09-25T09:39:59.213Z,12.40
2022-09-25T09:42:49.494Z,12.40
2022-09-25T09:45:25.863Z,12.40
2022-09-25T09:47:59.130Z,12.50
2022-09-25T09:50:43.323Z,12.60
2022-09-25T09:53:32.321Z,12.70
2022-09-25T09:56:10.577Z,12.80
2022-09-25T09:58:55.087Z,13.00
2022-09-25T10:01:42.113Z,13.20
2022-09-25T10:04:19.319Z,13.40
2022-09-25T10:06:55.400Z,13.40
2022-09-25T10:09:24.900Z,13.30
2022-09-25T10:12:00.957Z,13.30
2022-09-25T10:14:38.258Z,13.40
2022-09-25T10:17:07.151Z,13.40
2022-09-25T10:19:52.020Z,13.30
2022-09-25T10:22:23.678Z,13.40
2022-09-25T10:24:55.449Z,13.50
2022-09-25T10:27:26.373Z,13.40
2022-09-25T10:30:20.654Z,13.50
2022-09-25T10:33:02.612Z,13.60
2022-09-25T10:35:38.216Z,13.70
2022-09-25T10:38:16.586Z,14.00
2022-09-25T10:40:49.161Z,14.00
2022-09-25T10:43:23.455Z,14.00
2022-09-25T10:46:04.426Z,13.90
2022-09-25T10:48:55.062Z,13.90
2022-09-25T10:51:22.469Z,14.00
2022-09-25T10:53:51.344Z,14.20
2022-09-25T10:56:29.717Z,14.30
2022-09-25T10:59:02.025Z,14.50
2022-09-25T11:01:38.164Z,14.80
2022-09-25T11:04:14.031Z,15.10
2022-09-25T11:06:47.195Z,15.50
2022-09-25T11:09:16.769Z,15.40
2022-09-25T11:11:46.454Z,15.30
2022-09-25T11:14:32.508Z,15.40
2022-09-25T11:17:01.475Z,15.40
2022-09-25T11:19:36.473Z,15.20
2022-09-25T11:22:33.729Z,15.20
2022-09-25T11:25:12.965Z,15.40
2022-09-25T11:27:45.505Z,15.70
2022-09-25T11:30:17.614Z,16.00
2022-09-25T11:32:52.232Z,16.10
2022-09-25T11:35:29.800Z,16.20
2022-09-25T11:38:50.858Z,16.30
2022-09-25T11:41:30.397Z,16.10
2022-09-25T11:44:17.080Z,15.90
2022-09-25T11:47:05.452Z,15.60
2022-09-25T11:49:36.356Z,15.20
2022-09-25T11:52:20.394Z,15.00
2022-09-25T11:55:14.871Z,15.00
2022-09-25T11:57:59.590Z,15.10
2022-09-25T12:00:38.368Z,15.10
2022-09-25T12:03:40.766Z,14.90
2022-09-25T12:06:22.579Z,14.80
2022-09-25T12:09:08.214Z,14.80
2022-09-25T12:11:45.278Z,14.90
2022-09-25T12:14:17.097Z,14.80
2022-09-25T12:16:59.288Z,15.00
2022-09-25T12:20:00.487Z,15.00
2022-09-25T12:22:54.291Z,15.10
2022-09-25T12:25:27.792Z,15.10
2022-09-25T12:28:02.677Z,15.00
2022-09-25T12:30:47.273Z,15.00
2022-09-25T12:33:27.875Z,15.00
2022-09-25T12:36:09.062Z,14.80
2022-09-25T12:38:56.264Z,14.80
2022-09-25T12:41:43.723Z,14.80
2022-09-25T12:44:26.607Z,14.60
2022-09-25T12:47:03.026Z,14.60
2022-09-25T12:49:38.736Z,14.50
2022-09-25T12:52:20.774Z,14.50
2022-09-25T12:55:26.049Z,14.40
2022-09-25T12:58:02.728Z,14.20
2022-09-25T13:00:32.745Z,14.30
2022-09-25T13:03:19.564Z,14.30
2022-09-25T13:05:52.121Z,14.40
2022-09-25T13:08:20.250Z,14.30
2022-09-25T13:10:59.648Z,14.50
2022-09-25T13:13:29.501Z,14.50
2022-09-25T13:15:59.123Z,14.60
2022-09-25T13:18:28.061Z,14.70
2022-09-25T13:20:56.802Z,14.70
2022-09-25T13:23:54.181Z,14.70
2022-09-25T13:26:26.875Z,14.80
2022-09-25T13:28:58.477Z,14.80
2022-09-25T13:31:28.754Z,14.90
2022-09-25T13:34:09.778Z,15.00
2022-09-25T13:36:47.842Z,15.00
2022-09-25T13:39:50.239Z,15.00
2022-09-25T13:42:37.778Z,14.90
2022-09-25T13:45:29.813Z,14.80
2022-09-25T13:48:12.339Z,14.80
2022-09-25T13:50:45.060Z,14.90
2022-09-25T13:53:21.329Z,15.10
2022-09-25T13:55:57.200Z,15.10
2022-09-25T13:58:26.467Z,15.00
2022-09-25T14:00:55.193Z,15.00
2022-09-25T14:03:49.861Z,15.20
2022-09-25T14:06:22.868Z,15.50
2022-09-25T14:08:51.630Z,15.60
2022-09-25T14:11:28.973Z,15.60
2022-09-25T14:13:56.513Z,15.50
2022-09-25T14:16:33.446Z,15.40
2022-09-25T14:19:03.307Z,15.40
2022-09-25T14:21:33.450Z,15.40
2022-09-25T14:24:19.141Z,15.40
2022-09-25T14:26:46.400Z,15.40
2022-09-25T14:29:18.893Z,15.20
2022-09-25T14:31:59.286Z,15.20
2022-09-25T14:34:40.732Z,15.00
2022-09-25T14:37:33.518Z,14.70
2022-09-25T14:40:18.655Z,14.80
2022-09-25T14:42:56.981Z,14.70
2022-09-25T14:45:41.116Z,14.70
2022-09-25T14:48:16.606Z,14.80
2022-09-25T14:50:48.842Z,14.90
2022-09-25T14:53:25.854Z,14.90
2022-09-25T14:55:53.092Z,15.00
2022-09-25T14:58:27.000Z,15.30
2022-09-25T15:00:58.126Z,15.30
2022-09-25T15:03:30.061Z,15.50
2022-09-25T15:06:00.601Z,15.60
2022-09-25T15:08:36.005Z,15.60
2022-09-25T15:11:13.494Z,15.50
2022-09-25T15:13:40.465Z,15.50
2022-09-25T15:16:38.734Z,15.60
2022-09-25T15:19:20.384Z,15.60
2022-09-25T15:21:50.675Z,15.40
2022-09-25T15:24:27.552Z,15.30
2022-09-25T15:27:04.949Z,15.30
2022-09-25T15:29:36.517Z,15.20
2022-09-25T15:32:05.002Z,15.20
2022-09-25T15:34:33.254Z,15.00
2022-09-25T15:37:26.457Z,14.80
2022-09-25T15:39:53.532Z,14.80
2022-09-25T15:42:20.612Z,14.70
2022-09-25T15:44:48.552Z,14.60
2022-09-25T15:47:49.029Z,14.50
2022-09-25T15:50:22.525Z,14.60
2022-09-25T15:52:52.735Z,14.50
2022-09-25T15:55:21.141Z,14.50
2022-09-25T15:57:49.932Z,14.50
2022-09-25T16:00:43.912Z,14.50
2022-09-25T16:03:32.021Z,14.50
2022-09-25T16:06:03.769Z,14.60
2022-09-25T16:08:33.388Z,14.50
2022-09-25T16:11:25.126Z,14.50
2022-09-25T16:14:11.887Z,14.50
2022-09-25T16:16:49.717Z,14.50
2022-09-25T16:19:21.488Z,14.30
2022-09-25T16:21:48.489Z,14.30
2022-09-25T16:24:21.747Z,14.30
2022-09-25T16:27:01.451Z,14.30
2022-09-25T16:29:34.477Z,14.40
2022-09-25T16:32:05.320Z,14.50
2022-09-25T16:34:40.168Z,14.50
2022-09-25T16:37:19.055Z,14.40
2022-09-25T16:39:45.671Z,14.40
2022-09-25T16:42:26.688Z,14.40
2022-09-25T16:45:04.476Z,14.40
2022-09-25T16:47:31.784Z,14.40
2022-09-25T16:49:58.503Z,14.50
2022-09-25T16:52:28.875Z,14.40
2022-09-25T16:54:57.174Z,14.50
2022-09-25T16:57:27.528Z,14.40
2022-09-25T16:59:54.277Z,14.20
2022-09-25T17:02:37.855Z,14.20
2022-09-25T17:05:20.951Z,14.20
2022-09-25T17:07:50.011Z,14.20
2022-09-25T17:10:19.519Z,14.20
2022-09-25T17:12:53.516Z,14.10
2022-09-25T17:15:24.619Z,13.80
2022-09-25T17:17:55.801Z,13.60
2022-09-25T17:20:24.395Z,13.50
2022-09-25T17:22:52.866Z,13.30
2022-09-25T17:25:38.614Z,13.10
2022-09-25T17:28:06.508Z,12.80
2022-09-25T17:30:33.200Z,12.70
2022-09-25T17:33:00.146Z,12.40
2022-09-25T17:35:33.507Z,12.20
2022-09-25T17:38:01.423Z,11.90
2022-09-25T17:40:30.356Z,11.80
2022-09-25T17:42:57.349Z,11.60
2022-09-25T17:45:50.498Z,11.50
2022-09-25T17:48:25.985Z,11.60
2022-09-25T17:51:09.492Z,11.60
2022-09-25T17:53:36.464Z,11.50
2022-09-25T17:56:04.695Z,11.50
2022-09-25T17:58:32.139Z,11.30
2022-09-25T18:01:01.010Z,11.30
2022-09-25T18:03:30.215Z,11.20
2022-09-25T18:05:57.368Z,11.00
2022-09-25T18:08:24.344Z,10.80
2022-09-25T18:10:56.941Z,10.80
2022-09-25T18:13:23.602Z,10.50
2022-09-25T18:15:55.837Z,10.30
2022-09-25T18:18:23.259Z,10.20
2022-09-25T18:21:09.749Z,10.20
2022-09-25T18:23:38.268Z,10.10
2022-09-25T18:26:07.517Z,10.00
2022-09-25T18:28:34.276Z,9.90
2022-09-25T18:31:01.018Z,9.90
2022-09-25T18:33:27.852Z,9.90
2022-09-25T18:35:54.722Z,9.80
2022-09-25T18:38:21.365Z,9.60
2022-09-25T18:40:48.135Z,9.50
2022-09-25T18:43:15.037Z,9.50
2022-09-25T18:45:50.849Z,9.40
2022-09-25T18:48:17.457Z,9.40
2022-09-25T18:50:50.802Z,9.40
2022-09-25T18:53:17.806Z,9.30
2022-09-25T18:55:44.587Z,9.40
2022-09-25T18:58:11.789Z,9.10
2022-09-25T19:00:39.681Z,9.10
2022-09-25T19:03:06.964Z,9.10
2022-09-25T19:05:33.710Z,9.00
2022-09-25T19:08:02.578Z,8.90
2022-09-25T19:10:31.088Z,8.90
2022-09-25T19:12:57.725Z,8.90
2022-09-25T19:15:24.715Z,8.80
2022-09-25T19:17:51.325Z,8.80
2022-09-25T19:20:18.002Z,8.70
2022-09-25T19:22:45.743Z,8.60
2022-09-25T19:25:12.445Z,8.40
2022-09-25T19:27:39.135Z,8.40
2022-09-25T19:30:06.336Z,8.20
2022-09-25T19:32:32.932Z,8.20
2022-09-25T19:34:59.728Z,8.20
2022-09-25T19:37:29.706Z,8.10
2022-09-25T19:40:15.356Z,8.20
2022-09-25T19:42:42.113Z,8.10
2022-09-25T19:45:09.728Z,8.00
2022-09-25T19:47:36.413Z,8.10
2022-09-25T19:50:06.844Z,8.00
2022-09-25T19:52:33.455Z,7.80
2022-09-25T19:55:00.139Z,7.80
2022-09-25T19:57:27.513Z,7.90
2022-09-25T19:59:54.824Z,7.70
2022-09-25T20:02:21.701Z,7.70
2022-09-25T20:04:48.569Z,7.60
2022-09-25T20:07:15.968Z,7.60
2022-09-25T20:09:44.370Z,7.60
2022-09-25T20:12:11.639Z,7.60
2022-09-25T20:14:38.451Z,7.60
2022-09-25T20:17:09.855Z,7.60
2022-09-25T20:19:37.589Z,7.50
2022-09-25T20:22:04.277Z,7.40
2022-09-25T20:24:30.920Z,7.40
2022-09-25T20:26:57.521Z,7.30
2022-09-25T20:29:24.144Z,7.30
2022-09-25T20:31:50.811Z,7.20
2022-09-25T20:34:20.031Z,7.20
2022-09-25T20:36:47.027Z,7.00
2022-09-25T20:39:19.721Z,7.00
2022-09-25T20:41:48.411Z,7.00
2022-09-25T20:44:15.127Z,7.10
2022-09-25T20:46:41.899Z,7.10
2022-09-25T20:49:10.572Z,7.00
2022-09-25T20:51:37.563Z,6.90
2022-09-25T20:54:06.862Z,6.80
2022-09-25T20:56:35.196Z,6.80
2022-09-25T20:59:03.588Z,6.60
2022-09-25T21:01:34.362Z,6.70
2022-09-25T21:04:03.431Z,6.70
2022-09-25T21:06:33.473Z,6.60
2022-09-25T21:09:03.133Z,6.50
2022-09-25T21:11:31.858Z,6.50
2022-09-25T21:14:00.583Z,6.30
2022-09-25T21:16:28.784Z,6.40
2022-09-25T21:19:00.745Z,6.40
2022-09-25T21:21:28.919Z,6.30
2022-09-25T21:23:57.416Z,6.10
2022-09-25T21:26:26.884Z,6.10
2022-09-25T21:28:55.720Z,6.20
2022-09-25T21:31:26.035Z,6.10
2022-09-25T21:33:57.246Z,6.00
2022-09-25T21:36:25.195Z,6.00
2022-09-25T21:38:52.707Z,6.10
2022-09-25T21:41:21.875Z,6.00
2022-09-25T21:43:52.575Z,6.10
2022-09-25T21:46:19.986Z,6.00
2022-09-25T21:48:55.822Z,5.80
2022-09-25T21:51:24.930Z,5.80
2022-09-25T21:53:54.230Z,5.80
2022-09-25T21:56:25.289Z,5.70
2022-09-25T21:58:53.543Z,5.60
2022-09-25T22:01:23.949Z,5.50
2022-09-25T22:03:52.178Z,5.50
2022-09-25T22:06:22.784Z,5.50
2022-09-25T22:08:51.853Z,5.40
2022-09-25T22:11:19.357Z,5.50
2022-09-25T22:13:47.491Z,5.50
2022-09-25T22:16:15.876Z,5.40
2022-09-25T22:19:10.180Z,5.50
2022-09-25T22:21:37.401Z,5.50
2022-09-25T22:24:04.627Z,5.50
2022-09-25T22:26:32.998Z,5.60
2022-09-25T22:28:59.654Z,5.50
2022-09-25T22:31:29.158Z,5.70
2022-09-25T22:34:01.454Z,5.50
2022-09-25T22:36:28.791Z,5.50
2022-09-25T22:38:55.628Z,5.40
2022-09-25T22:41:23.075Z,5.30
2022-09-25T22:43:51.951Z,5.40
2022-09-25T22:46:19.716Z,5.40
2022-09-25T22:48:46.881Z,5.30
2022-09-25T22:51:19.940Z,5.30
2022-09-25T22:53:47.013Z,5.20
2022-09-25T22:56:24.228Z,5.20
2022-09-25T22:58:58.152Z,5.20
2022-09-25T23:01:26.589Z,5.20
2022-09-25T23:03:55.341Z,5.20
2022-09-25T23:06:22.867Z,5.30
2022-09-25T23:08:58.621Z,5.50
2022-09-25T23:11:26.280Z,5.50
2022-09-25T23:14:19.322Z,5.30
2022-09-25T23:16:47.830Z,5.30
2022-09-25T23:19:15.037Z,5.30
2022-09-25T23:21:42.352Z,5.50
2022-09-25T23:24:14.240Z,5.50
2022-09-25T23:26:41.590Z,5.40
2022-09-25T23:29:08.325Z,5.50
2022-09-25T23:31:35.087Z,5.60
2022-09-25T23:34:02.397Z,5.70
2022-09-25T23:36:30.088Z,5.70
2022-09-25T23:39:00.723Z,5.90
2022-09-25T23:41:36.139Z,5.90
2022-09-25T23:44:04.772Z,6.00
2022-09-25T23:46:34.040Z,6.00
2022-09-25T23:49:01.011Z,5.80
2022-09-25T23:51:28.336Z,5.90
2022-09-25T23:53:57.083Z,5.80
2022-09-25T23:56:26.228Z,5.70
2022-09-25T23:58:55.030Z,5.60
